createdAt,value
2022-11-17T00:03:52.198Z,2.47
2022-11-17T00:08:57.767Z,2.57
2022-11-17T00:14:24.939Z,2.18
2022-11-17T00:19:50.151Z,2.14
2022-11-17T00:24:54.917Z,2.37
2022-11-17T00:29:59.664Z,1.84
2022-11-17T00:35:08.839Z,1.77
2022-11-17T00:40:15.269Z,2.20
2022-11-17T00:45:20.078Z,2.76
2022-11-17T00:50:25.999Z,1.94
2022-11-17T00:55:30.180Z,2.08
2022-11-17T01:00:34.983Z,2.18
2022-11-17T01:05:43.452Z,2.29
2022-11-17T01:10:50.854Z,2.08
2022-11-17T01:15:55.519Z,2.29
2022-11-17T01:21:09.616Z,1.60
2022-11-17T01:26:16.079Z,1.86
2022-11-17T01:31:23.636Z,2.10
2022-11-17T01:36:31.325Z,2.01
2022-11-17T01:41:42.312Z,2.38
2022-11-17T01:46:47.574Z,2.29
2022-11-17T01:51:57.280Z,2.31
2022-11-17T01:57:06.731Z,2.12
2022-11-17T02:02:11.502Z,2.20
2022-11-17T02:07:26.147Z,2.11
2022-11-17T02:12:33.122Z,1.81
2022-11-17T02:17:41.807Z,1.26
2022-11-17T02:23:20.404Z,1.41
2022-11-17T02:28:29.341Z,1.83
2022-11-17T02:33:45.093Z,2.47
2022-11-17T02:38:56.692Z,1.84
2022-11-17T02:44:12.521Z,2.00
2022-11-17T02:49:22.108Z,1.93
2022-11-17T02:54:30.818Z,1.67
2022-11-17T02:59:43.349Z,1.89
2022-11-17T03:04:57.534Z,2.28
2022-11-17T03:10:13.284Z,2.32
2022-11-17T03:15:29.625Z,1.79
2022-11-17T03:20:41.594Z,1.93
2022-11-17T03:25:52.342Z,1.57
2022-11-17T03:31:00.803Z,1.85
2022-11-17T03:36:09.794Z,1.59
2022-11-17T03:41:18.695Z,2.31
2022-11-17T03:46:47.982Z,1.81
2022-11-17T03:51:59.847Z,1.61
2022-11-17T03:57:33.980Z,1.26
2022-11-17T04:03:35.733Z,1.21
2022-11-17T04:08:59.721Z,1.47
2022-11-17T04:14:39.572Z,1.69
2022-11-17T04:20:14.957Z,1.42
2022-11-17T04:31:23.346Z,0.97
2022-11-17T04:36:51.527Z,1.71
2022-11-17T04:42:06.659Z,1.71
2022-11-17T04:47:22.690Z,1.23
2022-11-17T04:52:30.001Z,1.31
2022-11-17T04:57:34.738Z,1.17
2022-11-17T05:02:40.734Z,0.67
2022-11-17T05:07:44.822Z,0.93
2022-11-17T05:13:06.591Z,0.65
2022-11-17T05:18:12.360Z,0.50
2022-11-17T05:23:38.140Z,0.61
2022-11-17T05:28:42.990Z,0.34
2022-11-17T05:33:49.727Z,0.66
2022-11-17T05:38:54.808Z,0.83
2022-11-17T05:43:59.830Z,0.84
2022-11-17T05:49:12.205Z,1.11
2022-11-17T05:54:16.689Z,0.92
2022-11-17T05:59:28.430Z,0.99
2022-11-17T06:04:35.924Z,0.20
2022-11-17T06:09:43.618Z,0.52
2022-11-17T06:14:48.215Z,0.88
2022-11-17T06:32:07.300Z,0.39
2022-11-17T06:43:30.481Z,0.54
2022-11-17T06:49:05.268Z,0.87
2022-11-17T06:54:21.777Z,0.74
2022-11-17T06:59:42.963Z,0.78
2022-11-17T07:05:02.319Z,0.99
2022-11-17T07:10:10.464Z,1.37
2022-11-17T07:15:16.258Z,1.54
2022-11-17T07:20:22.090Z,1.73
2022-11-17T07:25:29.166Z,1.53
2022-11-17T07:30:34.160Z,1.84
2022-11-17T07:35:39.943Z,2.22
2022-11-17T07:40:43.996Z,1.39
2022-11-17T07:45:48.408Z,1.51
2022-11-17T07:50:54.176Z,0.77
2022-11-17T07:55:58.381Z,1.02
2022-11-17T08:01:06.406Z,1.12
2022-11-17T08:06:13.917Z,1.77
2022-11-17T08:11:19.519Z,1.33
2022-11-17T08:16:25.763Z,1.43
2022-11-17T08:21:31.527Z,1.11
2022-11-17T08:26:35.656Z,1.34
2022-11-17T08:31:41.658Z,1.14
2022-11-17T08:36:48.714Z,1.07
2022-11-17T08:41:53.163Z,0.71
2022-11-17T08:46:57.379Z,1.15
2022-11-17T08:52:03.015Z,0.74
2022-11-17T08:57:07.336Z,1.76
2022-11-17T09:02:13.294Z,1.57
2022-11-17T09:07:19.069Z,0.72
2022-11-17T09:12:25.480Z,1.82
2022-11-17T09:17:38.790Z,1.92
2022-11-17T09:22:44.789Z,1.42
2022-11-17T09:27:54.905Z,1.34
2022-11-17T09:33:01.421Z,1.41
2022-11-17T09:38:13.996Z,1.60
2022-11-17T09:43:30.263Z,1.12
2022-11-17T09:48:51.202Z,1.99
2022-11-17T09:55:39.134Z,1.84
2022-11-17T10:01:22.891Z,1.53
2022-11-17T10:06:33.855Z,2.06
2022-11-17T10:11:49.055Z,1.53
2022-11-17T10:17:01.871Z,1.20
2022-11-17T10:22:20.822Z,1.22
2022-11-17T10:27:28.272Z,1.57
2022-11-17T10:32:37.829Z,1.50
2022-11-17T10:37:46.821Z,1.75
2022-11-17T10:43:01.891Z,0.78
2022-11-17T10:48:18.496Z,1.36
2022-11-17T10:53:42.959Z,1.26
2022-11-17T10:59:05.707Z,1.83
2022-11-17T11:04:30.846Z,2.10
2022-11-17T11:09:41.494Z,1.52
2022-11-17T11:14:52.601Z,1.45
2022-11-17T11:19:58.967Z,1.20
2022-11-17T11:25:12.295Z,1.08
2022-11-17T11:30:18.670Z,1.87
2022-11-17T11:35:54.361Z,2.21
2022-11-17T11:41:12.905Z,1.85
2022-11-17T11:46:25.812Z,1.40
2022-11-17T11:51:38.442Z,1.34
2022-11-17T11:56:46.156Z,2.15
2022-11-17T12:02:00.626Z,1.86
2022-11-17T12:07:17.887Z,1.61
2022-11-17T12:13:20.447Z,1.51
2022-11-17T12:18:55.386Z,1.66
2022-11-17T12:24:47.302Z,1.68
2022-11-17T12:29:57.067Z,1.47
2022-11-17T12:35:26.085Z,1.36
2022-11-17T12:40:54.081Z,0.95
2022-11-17T12:46:26.297Z,1.52
2022-11-17T12:51:45.191Z,1.73
2022-11-17T12:57:01.603Z,1.90
2022-11-17T13:02:25.476Z,1.51
2022-11-17T13:07:31.386Z,1.97
2022-11-17T13:12:37.577Z,1.55
2022-11-17T13:17:44.128Z,1.17
2022-11-17T13:23:01.624Z,1.58
2022-11-17T13:28:06.231Z,1.29
2022-11-17T13:33:21.091Z,1.53
2022-11-17T13:38:26.560Z,1.24
2022-11-17T13:43:38.086Z,1.35
2022-11-17T13:48:46.380Z,0.86
2022-11-17T13:53:55.345Z,1.07
2022-11-17T13:59:02.922Z,1.58
2022-11-17T14:04:19.563Z,1.67
2022-11-17T14:09:26.157Z,1.26
2022-11-17T14:14:35.513Z,0.64
2022-11-17T14:19:39.914Z,1.06
2022-11-17T14:24:45.405Z,1.44
2022-11-17T14:29:49.497Z,0.87
2022-11-17T14:34:53.758Z,0.96
2022-11-17T14:40:00.738Z,1.27
2022-11-17T14:45:07.957Z,0.71
2022-11-17T14:50:14.475Z,0.72
2022-11-17T14:55:22.077Z,0.70
2022-11-17T15:00:26.018Z,0.52
2022-11-17T15:05:30.118Z,1.53
2022-11-17T15:10:35.645Z,1.50
2022-11-17T15:15:39.735Z,1.06
2022-11-17T15:20:44.223Z,1.40
2022-11-17T15:25:49.634Z,1.17
2022-11-17T15:30:54.000Z,0.96
2022-11-17T15:36:02.507Z,0.56
2022-11-17T15:41:09.567Z,0.65
2022-11-17T15:46:15.259Z,0.04
2022-11-17T15:51:21.015Z,0.35
2022-11-17T15:56:26.858Z,0.67
2022-11-17T16:01:32.823Z,0.95
2022-11-17T16:06:39.740Z,0.70
2022-11-17T16:11:45.235Z,0.88
2022-11-17T16:16:49.846Z,0.75
2022-11-17T16:21:54.084Z,0.51
2022-11-17T16:26:59.676Z,1.07
2022-11-17T16:32:04.914Z,0.93
2022-11-17T16:37:09.770Z,1.57
2022-11-17T16:42:15.411Z,0.63
2022-11-17T16:47:21.839Z,0.53
2022-11-17T16:52:27.628Z,0.71
2022-11-17T16:57:33.411Z,0.38
2022-11-17T17:02:37.938Z,0.14
2022-11-17T17:07:42.291Z,0.78
2022-11-17T17:12:47.952Z,0.24
2022-11-17T17:17:59.472Z,0.31
2022-11-17T17:23:05.413Z,-0.17
2022-11-17T17:28:11.310Z,-0.07
2022-11-17T17:33:15.243Z,0.48
2022-11-17T17:38:19.785Z,0.16
2022-11-17T17:43:25.597Z,0.31
2022-11-17T17:48:31.763Z,1.04
2022-11-17T17:53:37.544Z,1.00
2022-11-17T17:58:43.080Z,0.38
2022-11-17T18:03:49.199Z,0.94
2022-11-17T18:08:54.828Z,0.06
2022-11-17T18:14:00.598Z,1.31
2022-11-17T18:19:08.456Z,0.89
2022-11-17T18:24:13.644Z,1.25
2022-11-17T18:29:21.729Z,1.03
2022-11-17T18:34:26.818Z,1.04
2022-11-17T18:39:33.403Z,1.66
2022-11-17T18:44:39.083Z,2.05
2022-11-17T18:49:43.241Z,1.42
2022-11-17T18:54:47.686Z,0.86
2022-11-17T18:59:53.456Z,1.09
2022-11-17T19:04:59.131Z,0.95
2022-11-17T19:10:05.954Z,0.74
2022-11-17T19:15:13.962Z,1.14
2022-11-17T19:20:19.505Z,0.99
2022-11-17T19:25:24.002Z,0.57
2022-11-17T19:30:29.679Z,0.39
2022-11-17T19:35:33.908Z,0.96
2022-11-17T19:40:38.827Z,1.24
2022-11-17T19:45:44.700Z,0.78
2022-11-17T19:50:54.458Z,1.21
2022-11-17T19:56:01.364Z,2.06
2022-11-17T20:01:12.364Z,1.06
2022-11-17T20:06:18.877Z,0.53
2022-11-17T20:11:24.840Z,0.59
2022-11-17T20:16:31.327Z,1.37
2022-11-17T20:21:35.391Z,0.80
2022-11-17T20:26:41.103Z,0.66
2022-11-17T20:31:46.681Z,1.16
2022-11-17T20:36:54.478Z,1.53
2022-11-17T20:41:59.078Z,1.53
2022-11-17T20:47:07.810Z,0.67
2022-11-17T20:52:13.529Z,2.19
2022-11-17T20:57:17.810Z,0.88
2022-11-17T21:02:23.303Z,1.09
2022-11-17T21:07:27.584Z,1.34
2022-11-17T21:12:31.981Z,1.51
2022-11-17T21:17:54.833Z,0.60
2022-11-17T21:22:58.942Z,-0.07
2022-11-17T21:28:03.205Z,0.88
2022-11-17T21:33:08.812Z,1.15
2022-11-17T21:38:13.964Z,2.01
2022-11-17T21:43:17.955Z,0.91
2022-11-17T21:48:23.508Z,1.28
2022-11-17T21:54:18.476Z,1.17
2022-11-17T22:00:34.123Z,0.40
2022-11-17T22:06:37.721Z,1.56
2022-11-17T22:11:50.336Z,1.65
2022-11-17T22:23:16.220Z,1.32
2022-11-17T22:29:02.330Z,1.02
2022-11-17T22:34:55.502Z,1.78
2022-11-17T22:47:04.176Z,2.05
2022-11-17T22:53:11.406Z,1.19
2022-11-17T22:59:30.313Z,1.41
2022-11-17T23:05:31.662Z,1.12
2022-11-17T23:17:12.895Z,1.17
2022-11-17T23:22:40.151Z,1.11
2022-11-17T23:28:35.035Z,0.57
2022-11-17T23:34:31.675Z,0.27
2022-11-17T23:40:19.576Z,0.14
2022-11-17T23:45:53.220Z,1.04
2022-11-17T23:51:50.358Z,1.20
2022-11-17T23:57:57.983Z,1.56
